Time;durP1;ratioP1;P1;durP2;ratioP2;P2;SDS_P1;SDS_P2;PMS_P1;PMS_P2;Temp;Humidity;BMP_temperature;BMP_pressure;BME280_temperature;BME280_humidity;BME280_pressure;Samples;Min_cycle;Max_cycle;Signal;HPM_P1;HPM_P2
2021/06/27 00:00:44;;;;;;;21.33;8.20;;;;;;;14.94;76.98;99071.72;2355483;76;21021;-69
2021/06/27 00:03:48;;;;;;;18.70;6.50;;;;;;;14.86;76.79;99078.87;2340403;76;20995;-68
2021/06/27 00:06:49;;;;;;;19.92;5.75;;;;;;;14.75;76.42;99074.88;2354995;75;21505;-73
2021/06/27 00:09:51;;;;;;;15.43;5.30;;;;;;;14.56;76.56;99076.69;2355311;75;21035;-71
2021/06/27 00:12:54;;;;;;;15.18;5.05;;;;;;;14.43;76.88;99078.06;2339221;76;21040;-70
2021/06/27 00:15:56;;;;;;;16.37;5.80;;;;;;;14.40;77.19;99069.05;2355731;75;21348;-70
2021/06/27 00:18:57;;;;;;;20.50;6.87;;;;;;;14.42;76.75;99070.26;2355227;75;21040;-74
2021/06/27 00:21:59;;;;;;;19.93;6.07;;;;;;;14.41;76.87;99074.70;2355327;75;21745;-71
2021/06/27 00:25:00;;;;;;;19.60;7.90;;;;;;;14.41;76.83;99075.16;2355624;75;21243;-72
2021/06/27 00:28:02;;;;;;;20.10;6.10;;;;;;;14.40;77.05;99082.25;2355297;75;21020;-70
2021/06/27 00:31:03;;;;;;;15.53;5.07;;;;;;;14.47;77.44;99083.97;2355498;75;21000;-70
2021/06/27 00:34:05;;;;;;;18.45;6.30;;;;;;;14.38;76.58;99089.45;2355149;75;21025;-70
2021/06/27 00:37:08;;;;;;;25.82;9.65;;;;;;;14.29;76.73;99076.41;2355083;75;21543;-75
2021/06/27 00:40:09;;;;;;;22.55;8.48;;;;;;;14.26;77.02;99077.97;2340385;76;21036;-74
2021/06/27 00:43:11;;;;;;;22.23;8.60;;;;;;;14.26;76.98;99079.28;2355314;75;21004;-74
2021/06/27 00:46:12;;;;;;;21.75;8.08;;;;;;;14.19;77.03;99070.13;2355336;75;21467;-67
2021/06/27 00:49:14;;;;;;;22.63;8.13;;;;;;;14.28;76.88;99084.45;2355447;75;21009;-68
2021/06/27 00:52:15;;;;;;;21.83;8.20;;;;;;;14.19;76.95;99081.54;2355305;75;21051;-73
2021/06/27 00:55:17;;;;;;;25.63;9.93;;;;;;;14.18;77.28;99090.88;2355475;75;21013;-71
2021/06/27 00:58:18;;;;;;;21.97;8.40;;;;;;;14.17;77.19;99090.51;2354771;76;21547;-67
2021/06/27 01:01:20;;;;;;;19.97;8.10;;;;;;;14.12;77.30;99090.84;2355456;75;20975;-74
2021/06/27 01:04:21;;;;;;;19.03;6.47;;;;;;;14.08;77.35;99091.16;2355275;76;21020;-74
2021/06/27 01:07:24;;;;;;;;;;;;;;;13.99;77.33;99095.29;2357528;75;21519;-74
2021/06/27 01:10:25;;;;;;;17.82;7.67;;;;;;;13.92;77.20;99096.67;2354927;75;20139;-73
2021/06/27 01:13:27;;;;;;;20.08;7.95;;;;;;;13.84;77.63;99098.05;2355167;76;21546;-65
2021/06/27 01:16:29;;;;;;;16.05;5.75;;;;;;;13.84;77.76;99091.47;2355175;75;21040;-72
2021/06/27 01:19:31;;;;;;;17.00;5.75;;;;;;;13.82;77.81;99093.37;2355355;75;21507;-73
2021/06/27 01:22:32;;;;;;;16.45;4.83;;;;;;;13.81;77.86;99090.85;2355104;76;21019;-70
2021/06/27 01:25:34;;;;;;;19.20;6.87;;;;;;;13.81;77.54;99086.90;2355138;76;21012;-73
2021/06/27 01:28:36;;;;;;;;;;;;;;;13.76;78.02;99088.52;2357674;75;20968;-72
2021/06/27 01:31:37;;;;;;;11.90;3.60;;;;;;;13.71;77.51;99083.23;2355126;75;20381;-68
2021/06/27 01:34:39;;;;;;;11.03;3.33;;;;;;;13.58;77.09;99094.61;2355065;75;21067;-70
2021/06/27 01:37:41;;;;;;;12.95;5.00;;;;;;;13.48;77.13;99090.44;2354831;75;21551;-75
2021/06/27 01:40:42;;;;;;;15.60;5.20;;;;;;;13.41;77.39;99086.55;2355012;75;21010;-69
2021/06/27 01:43:44;;;;;;;12.10;4.53;;;;;;;13.28;77.60;99084.36;2355113;75;21035;-75
2021/06/27 01:46:46;;;;;;;20.45;4.90;;;;;;;13.26;78.12;99088.86;2355138;75;21004;-75
2021/06/27 01:49:47;;;;;;;17.07;4.67;;;;;;;13.21;78.08;99085.23;2355093;75;20980;-71
2021/06/27 01:52:48;;;;;;;11.37;4.00;;;;;;;13.26;78.02;99084.46;2355226;75;20996;-74
2021/06/27 01:58:54;;;;;;;17.02;4.95;;;;;;;13.22;77.39;99082.98;2340296;76;20961;-75
2021/06/27 02:01:56;;;;;;;17.57;5.53;;;;;;;13.20;77.33;99094.08;2354646;75;21003;-66
2021/06/27 02:04:58;;;;;;;17.65;5.62;;;;;;;13.18;77.55;99097.30;2355537;75;21476;-68
2021/06/27 02:08:00;;;;;;;;;;;;;;;13.25;77.80;99099.05;2357487;75;21472;-74
2021/06/27 02:11:02;;;;;;;13.93;4.33;;;;;;;13.25;77.70;99088.52;2355189;75;20170;-69
2021/06/27 02:14:03;;;;;;;15.47;5.10;;;;;;;13.23;77.62;99097.84;2355293;75;21516;-70
2021/06/27 02:17:05;;;;;;;16.80;4.77;;;;;;;13.16;77.45;99100.03;2355232;75;20981;-71
2021/06/27 02:20:06;;;;;;;17.62;5.20;;;;;;;13.09;77.76;99092.66;2355095;75;21515;-70
2021/06/27 02:23:08;;;;;;;15.77;5.60;;;;;;;13.04;77.68;99092.95;2355358;75;20985;-70
2021/06/27 02:26:10;;;;;;;16.95;5.30;;;;;;;13.03;78.11;99090.42;2355175;76;21504;-74
2021/06/27 02:29:11;;;;;;;17.20;4.77;;;;;;;13.08;78.29;99083.91;2354901;75;21018;-72
2021/06/27 02:32:12;;;;;;;14.73;5.00;;;;;;;13.12;77.72;99090.66;2355187;75;20959;-74
2021/06/27 02:35:14;;;;;;;18.25;6.33;;;;;;;13.09;77.36;99089.55;2355332;75;21043;-72
2021/06/27 02:38:15;;;;;;;21.57;8.23;;;;;;;13.05;77.57;99093.81;2354875;75;21032;-72
2021/06/27 02:41:17;;;;;;;26.60;9.57;;;;;;;13.00;78.24;99097.59;2355394;75;20985;-70
2021/06/27 02:44:19;;;;;;;24.27;8.95;;;;;;;13.02;78.29;99092.22;2355012;75;21312;-68
2021/06/27 02:47:20;;;;;;;20.83;7.07;;;;;;;13.06;78.29;99088.89;2355141;75;21507;-61
2021/06/27 02:50:21;;;;;;;19.33;5.57;;;;;;;13.11;78.04;99088.13;2355186;75;21017;-71
2021/06/27 02:53:23;;;;;;;20.48;5.10;;;;;;;13.24;77.45;99084.19;2355017;75;21504;-66
2021/06/27 02:56:25;;;;;;;17.57;5.30;;;;;;;13.20;76.92;99090.61;2354538;75;21035;-71
2021/06/27 02:59:26;;;;;;;18.45;5.70;;;;;;;13.17;76.89;99078.48;2355053;75;21014;-71
2021/06/27 03:02:28;;;;;;;14.90;5.10;;;;;;;13.16;77.05;99080.77;2355409;75;21008;-71
2021/06/27 03:05:29;;;;;;;17.40;5.87;;;;;;;13.18;77.06;99078.37;2355585;75;21016;-68
2021/06/27 03:08:31;;;;;;;17.85;5.83;;;;;;;13.23;77.19;99083.81;2355113;76;21069;-69
2021/06/27 03:11:33;;;;;;;19.07;7.00;;;;;;;13.32;77.40;99083.20;2355048;75;20984;-74
2021/06/27 03:14:34;;;;;;;17.73;6.50;;;;;;;13.30;77.51;99082.45;2355479;76;21580;-64
2021/06/27 03:17:35;;;;;;;16.73;6.00;;;;;;;13.34;77.65;99086.56;2355279;75;21027;-73
2021/06/27 03:20:37;;;;;;;17.95;5.40;;;;;;;13.37;77.36;99086.37;2355294;75;21467;-71
2021/06/27 03:23:38;;;;;;;22.90;7.70;;;;;;;13.44;77.32;99090.77;2354882;75;20999;-67
2021/06/27 03:26:40;;;;;;;21.80;7.70;;;;;;;13.55;77.35;99080.33;2355124;75;20993;-74
2021/06/27 03:29:42;;;;;;;28.05;7.95;;;;;;;13.66;77.21;99084.84;2355220;76;21032;-69
2021/06/27 03:32:44;;;;;;;21.10;6.70;;;;;;;13.93;77.15;99083.87;2355080;75;21078;-67
2021/06/27 03:35:46;;;;;;;18.90;6.30;;;;;;;14.03;76.69;99082.25;2355116;76;21001;-69
2021/06/27 03:38:58;;;;;;;;;;;;;;;14.10;76.35;99085.31;2357497;75;21091;-69
2021/06/27 03:41:53;;;;;;;19.75;6.10;;;;;;;14.23;76.62;99076.88;2369696;75;20126;-63
2021/06/27 03:44:55;;;;;;;19.90;5.90;;;;;;;14.52;76.31;99082.69;2355308;75;21053;-71
2021/06/27 03:47:57;;;;;;;19.77;6.45;;;;;;;14.76;76.50;99073.93;2355199;75;21017;-69
2021/06/27 03:50:58;;;;;;;20.23;8.03;;;;;;;15.14;76.31;99074.18;2355436;75;21071;-65
2021/06/27 03:53:59;;;;;;;21.73;7.10;;;;;;;15.27;75.60;99048.98;2355353;75;21039;-70
2021/06/27 03:57:01;;;;;;;22.70;7.37;;;;;;;15.41;75.36;99061.11;2355090;76;21040;-71
2021/06/27 04:00:03;;;;;;;20.05;6.67;;;;;;;15.50;75.74;99059.09;2355173;75;21045;-72
2021/06/27 04:03:05;;;;;;;23.90;7.58;;;;;;;15.89;75.83;99061.41;2354853;76;20949;-73
2021/06/27 04:06:06;;;;;;;22.37;7.55;;;;;;;16.17;75.36;99057.38;2355108;75;21039;-71
2021/06/27 04:09:08;;;;;;;22.75;7.92;;;;;;;16.46;75.07;99072.70;2354579;76;21550;-72
2021/06/27 04:12:09;;;;;;;23.57;9.80;;;;;;;16.69;75.15;99060.21;2355246;75;21008;-68
2021/06/27 04:15:11;;;;;;;22.67;9.40;;;;;;;16.99;74.95;99062.64;2354646;76;21047;-71
2021/06/27 04:18:12;;;;;;;26.53;10.87;;;;;;;17.35;74.61;99059.16;2355383;75;21030;-69
2021/06/27 04:21:14;;;;;;;26.97;11.73;;;;;;;17.72;73.87;99058.64;2355160;75;21260;-69
2021/06/27 04:24:15;;;;;;;27.10;12.00;;;;;;;17.95;73.64;99052.67;2355053;76;21557;-66
2021/06/27 04:27:16;;;;;;;26.87;12.55;;;;;;;18.29;73.45;99049.69;2355585;75;21027;-72
2021/06/27 04:30:18;;;;;;;27.52;12.73;;;;;;;18.42;72.91;99055.20;2354844;75;21333;-70
2021/06/27 04:33:19;;;;;;;24.72;11.85;;;;;;;18.49;72.77;99059.02;2355318;75;21048;-65
2021/06/27 04:36:21;;;;;;;27.48;13.00;;;;;;;18.52;72.89;99054.75;2355052;75;21009;-69
2021/06/27 04:39:22;;;;;;;28.32;14.00;;;;;;;18.86;73.09;99063.61;2355186;75;21488;-69
2021/06/27 04:42:24;;;;;;;26.35;14.43;;;;;;;19.20;72.52;99058.70;2355142;75;21001;-63
2021/06/27 04:45:25;;;;;;;26.77;13.88;;;;;;;19.39;71.57;99060.50;2355055;76;21134;-68
2021/06/27 04:48:27;;;;;;;29.52;14.95;;;;;;;19.42;71.32;99054.02;2355275;75;21004;-68
2021/06/27 04:51:28;;;;;;;26.65;14.28;;;;;;;19.48;71.77;99049.95;2355108;75;21090;-70
2021/06/27 04:54:30;;;;;;;25.08;14.20;;;;;;;19.60;71.85;99047.47;2355276;75;21491;-69
2021/06/27 04:57:31;;;;;;;26.07;13.98;;;;;;;19.77;71.65;99053.84;2355324;75;20980;-66
2021/06/27 05:00:33;;;;;;;29.45;14.85;;;;;;;19.97;71.20;99050.63;2355172;75;20992;-71
2021/06/27 05:03:34;;;;;;;28.57;14.13;;;;;;;19.99;70.77;99045.97;2355136;75;21488;-70
2021/06/27 05:06:36;;;;;;;30.72;14.10;;;;;;;19.99;70.77;99049.97;2355043;75;20914;-66
2021/06/27 05:09:38;;;;;;;;;;;;;;;20.04;71.38;99043.72;2357420;75;21480;-68
2021/06/27 05:12:39;;;;;;;26.68;13.48;;;;;;;20.16;70.19;99053.66;2354684;75;20091;-69
2021/06/27 05:15:41;;;;;;;26.37;13.80;;;;;;;20.01;70.13;99036.51;2354913;76;21039;-69
2021/06/27 05:18:42;;;;;;;27.52;14.33;;;;;;;20.13;70.26;99053.97;2355012;75;20952;-65
2021/06/27 05:21:44;;;;;;;28.52;14.55;;;;;;;20.21;70.20;99059.86;2354964;75;21020;-63
2021/06/27 05:24:45;;;;;;;27.55;13.90;;;;;;;20.21;70.31;99055.39;2355128;75;21067;-62
2021/06/27 05:27:47;;;;;;;26.37;13.78;;;;;;;20.40;70.04;99059.75;2354580;75;21019;-63
2021/06/27 05:30:48;;;;;;;29.75;14.90;;;;;;;20.60;69.75;99056.44;2354978;75;20972;-65
2021/06/27 05:33:50;;;;;;;25.85;14.35;;;;;;;20.82;69.41;99050.84;2354946;76;20996;-67
2021/06/27 05:36:51;;;;;;;26.40;13.93;;;;;;;20.93;68.25;99054.09;2355179;75;21534;-66
2021/06/27 05:39:53;;;;;;;26.87;14.60;;;;;;;21.14;69.06;99055.56;2357578;75;21064;-63
2021/06/27 05:42:56;;;;;;;27.05;14.85;;;;;;;21.53;68.57;99043.67;2357599;75;21049;-66
2021/06/27 05:45:58;;;;;;;27.75;14.60;;;;;;;21.72;66.90;99046.11;2357506;75;21020;-65
2021/06/27 05:49:00;;;;;;;27.48;15.10;;;;;;;21.76;66.49;99044.77;2357472;75;21032;-68
2021/06/27 05:52:01;;;;;;;25.00;13.72;;;;;;;21.71;66.88;99049.77;2357637;75;21012;-67
2021/06/27 05:55:02;;;;;;;25.85;14.68;;;;;;;21.87;66.79;99049.00;2357682;75;20996;-69
2021/06/27 05:58:04;;;;;;;26.93;13.72;;;;;;;22.03;67.02;99058.08;2357715;75;21040;-68
2021/06/27 06:01:05;;;;;;;26.35;14.18;;;;;;;22.26;65.60;99063.14;2357631;75;21571;-70
2021/06/27 06:04:07;;;;;;;27.87;14.60;;;;;;;22.42;64.77;99063.70;2357653;75;21032;-69
2021/06/27 06:07:08;;;;;;;25.25;14.33;;;;;;;22.54;64.56;99064.73;2357592;75;21075;-70
2021/06/27 06:10:10;;;;;;;31.48;15.15;;;;;;;22.57;64.22;99070.59;2357791;75;21008;-69
2021/06/27 06:13:12;;;;;;;26.73;13.78;;;;;;;22.74;64.43;99067.92;2357225;75;21040;-71
2021/06/27 06:16:13;;;;;;;28.10;13.88;;;;;;;22.90;64.09;99063.94;2357609;75;21063;-70
2021/06/27 06:19:17;;;;;;;26.30;13.32;;;;;;;22.91;62.25;99062.09;2357674;75;21020;-70
2021/06/27 06:22:19;;;;;;;28.32;12.90;;;;;;;22.93;63.67;99068.09;2338172;75;20975;-70
2021/06/27 06:25:21;;;;;;;25.20;12.30;;;;;;;23.26;63.13;99064.09;2357661;75;21043;-71
2021/06/27 06:28:22;;;;;;;26.55;12.60;;;;;;;23.46;60.34;99071.24;2357734;75;21032;-70
2021/06/27 06:31:23;;;;;;;23.75;12.30;;;;;;;23.42;60.34;99071.25;2357785;75;21012;-71
2021/06/27 06:34:25;;;;;;;23.67;11.28;;;;;;;23.58;61.19;99070.40;2357625;75;21621;-71
2021/06/27 06:37:26;;;;;;;24.40;12.47;;;;;;;23.78;60.32;99073.00;2357673;75;20960;-70
2021/06/27 06:40:28;;;;;;;23.25;11.73;;;;;;;23.81;58.50;99073.17;2357757;75;21008;-66
2021/06/27 06:43:29;;;;;;;23.77;11.35;;;;;;;23.85;59.61;99071.82;2357760;75;20949;-70
2021/06/27 06:46:31;;;;;;;22.77;10.20;;;;;;;23.99;58.30;99071.61;2357905;75;20971;-70
2021/06/27 06:49:32;;;;;;;24.07;10.75;;;;;;;24.07;57.63;99076.11;2357733;75;21041;-71
2021/06/27 06:52:34;;;;;;;21.75;9.35;;;;;;;24.20;57.81;99069.16;2357652;75;20997;-70
2021/06/27 06:55:35;;;;;;;22.73;9.98;;;;;;;24.45;56.63;99069.52;2357633;75;21506;-69
2021/06/27 06:58:37;;;;;;;21.93;9.15;;;;;;;24.45;56.46;99066.36;2357649;75;21055;-70
2021/06/27 07:01:38;;;;;;;20.00;8.75;;;;;;;24.51;56.00;99074.16;2357516;75;21117;-68
2021/06/27 07:04:39;;;;;;;20.60;8.58;;;;;;;24.63;52.87;99070.63;2357632;75;21020;-69
2021/06/27 07:07:42;;;;;;;19.73;7.25;;;;;;;24.53;53.64;99061.44;2357610;75;21047;-68
2021/06/27 07:10:44;;;;;;;19.12;7.08;;;;;;;24.38;51.84;99065.40;2357633;75;20992;-70
2021/06/27 07:13:46;;;;;;;19.20;7.35;;;;;;;24.45;52.07;99062.34;2357053;75;20977;-69
2021/06/27 07:16:47;;;;;;;21.95;8.10;;;;;;;24.62;52.41;99063.06;2357594;75;21519;-70
2021/06/27 07:19:49;;;;;;;19.30;6.65;;;;;;;24.89;53.44;99065.70;2357607;75;21047;-69
2021/06/27 07:22:50;;;;;;;21.85;7.53;;;;;;;25.13;50.42;99067.02;2357557;75;21032;-70
2021/06/27 07:25:51;;;;;;;16.48;5.53;;;;;;;25.25;49.27;99063.70;2357874;75;20925;-70
2021/06/27 07:28:53;;;;;;;19.30;6.72;;;;;;;25.31;44.17;99068.03;2357476;75;21059;-67
2021/06/27 07:31:54;;;;;;;21.82;7.25;;;;;;;25.40;50.63;99068.29;2357593;75;21547;-71
2021/06/27 07:34:56;;;;;;;18.82;7.10;;;;;;;25.64;48.51;99071.23;2357621;75;21001;-69
2021/06/27 07:37:57;;;;;;;17.25;6.33;;;;;;;25.84;48.81;99068.81;2357521;75;21581;-70
2021/06/27 07:40:59;;;;;;;17.32;6.87;;;;;;;26.11;48.00;99059.27;2357708;75;21020;-71
2021/06/27 07:44:00;;;;;;;19.62;7.60;;;;;;;26.08;48.29;99066.88;2357566;75;20988;-70
2021/06/27 07:47:01;;;;;;;20.92;6.60;;;;;;;26.00;45.08;99064.27;2357617;75;21023;-70
2021/06/27 07:50:03;;;;;;;18.73;7.10;;;;;;;26.09;47.46;99069.90;2357722;75;21058;-69
2021/06/27 07:53:04;;;;;;;16.75;6.22;;;;;;;26.60;48.72;99072.52;2357800;75;21488;-69
2021/06/27 07:56:06;;;;;;;18.12;7.15;;;;;;;26.77;41.79;99067.75;2358053;75;21010;-70
2021/06/27 07:59:09;;;;;;;18.12;6.70;;;;;;;26.15;43.14;99075.86;2357239;75;21558;-68
2021/06/27 08:02:10;;;;;;;18.77;6.78;;;;;;;25.69;43.70;99068.83;2357623;75;21008;-69
2021/06/27 08:05:12;;;;;;;17.17;6.90;;;;;;;25.63;45.15;99074.95;2357777;75;21504;-71
2021/06/27 08:08:15;;;;;;;18.80;7.33;;;;;;;26.13;46.48;99069.00;2357783;75;20998;-72
2021/06/27 08:11:16;;;;;;;18.82;8.25;;;;;;;26.71;45.34;99073.09;2357628;75;21482;-70
2021/06/27 08:14:18;;;;;;;20.17;8.05;;;;;;;26.90;43.49;99071.59;2357271;75;21149;-67
2021/06/27 08:17:19;;;;;;;21.10;8.38;;;;;;;26.65;43.34;99064.38;2357784;75;21000;-70
2021/06/27 08:20:21;;;;;;;20.40;8.08;;;;;;;26.31;45.37;99064.56;2357517;75;21032;-72
2021/06/27 08:23:22;;;;;;;19.62;8.10;;;;;;;26.45;45.86;99060.47;2357762;75;20993;-70
2021/06/27 08:26:24;;;;;;;18.20;7.33;;;;;;;26.46;43.93;99063.98;2357736;75;21555;-70
2021/06/27 08:29:26;;;;;;;19.70;8.08;;;;;;;26.03;44.98;99067.95;2357574;75;21083;-69
2021/06/27 08:32:29;;;;;;;;;;;;;;;26.24;45.32;99064.48;2360399;75;21512;-71
2021/06/27 08:35:30;;;;;;;22.35;8.33;;;;;;;26.95;44.20;99059.23;2357709;75;20103;-70
2021/06/27 08:38:34;;;;;;;21.90;7.80;;;;;;;27.86;44.74;99054.02;2351297;75;20961;-69
2021/06/27 08:41:36;;;;;;;18.57;7.45;;;;;;;28.03;41.75;99058.58;2343828;75;20940;-65
2021/06/27 08:44:37;;;;;;;18.77;7.70;;;;;;;27.35;41.50;99057.89;2343870;75;21479;-69
2021/06/27 08:47:39;;;;;;;20.10;7.25;;;;;;;26.57;42.56;99061.32;2343825;75;21028;-71
2021/06/27 08:50:40;;;;;;;19.87;8.33;;;;;;;26.24;43.92;99066.65;2343653;75;21016;-71
2021/06/27 08:53:42;;;;;;;18.10;7.80;;;;;;;26.08;44.14;99063.67;2343857;75;21455;-72
2021/06/27 08:56:43;;;;;;;18.40;7.78;;;;;;;26.10;43.15;99061.65;2343855;75;20980;-71
2021/06/27 09:13:11;;;;;;;16.27;6.37;;;;;;;28.47;40.31;99060.79;2347952;76;22701;-66
2021/06/27 09:16:12;;;;;;;17.82;6.92;;;;;;;28.50;39.39;99046.07;2316636;77;21000;-65
2021/06/27 09:19:14;;;;;;;;;;;;;;;28.33;39.21;99057.25;2319010;77;21510;-67
2021/06/27 09:22:14;;;;;;;17.60;7.10;;;;;;;28.25;39.53;99049.34;2316972;77;20115;-65
2021/06/27 09:25:15;;;;;;;18.90;7.00;;;;;;;28.15;39.77;99048.37;2317123;77;20960;-64
2021/06/27 09:28:15;;;;;;;15.93;6.80;;;;;;;28.28;41.93;99044.06;2316961;77;20956;-64
2021/06/27 09:31:16;;;;;;;17.33;6.97;;;;;;;28.46;39.65;99040.77;2316902;77;20955;-64
2021/06/27 09:34:17;;;;;;;17.00;6.80;;;;;;;28.14;41.73;99037.79;2316868;77;21455;-71
2021/06/27 09:37:17;;;;;;;17.55;7.40;;;;;;;27.82;40.51;99038.25;2316659;77;21026;-70
2021/06/27 09:40:18;;;;;;;18.93;7.13;;;;;;;27.73;40.60;99035.92;2316740;77;21024;-72
2021/06/27 09:43:18;;;;;;;17.27;6.73;;;;;;;28.50;40.63;99041.53;2317011;77;20995;-67
2021/06/27 09:46:19;;;;;;;17.70;7.00;;;;;;;29.35;38.72;99038.26;2316826;77;20967;-65
2021/06/27 09:49:19;;;;;;;17.87;6.53;;;;;;;29.83;38.14;99038.98;2317113;77;21052;-71
2021/06/27 09:52:20;;;;;;;16.45;6.22;;;;;;;30.01;39.22;99045.03;2316756;77;20952;-72
2021/06/27 09:55:20;;;;;;;17.23;6.57;;;;;;;29.91;38.99;99042.78;2316821;77;21537;-69
2021/06/27 09:58:21;;;;;;;17.07;7.03;;;;;;;29.78;38.21;99043.63;2316818;77;21463;-72
2021/06/27 10:01:23;;;;;;;16.95;6.60;;;;;;;29.21;38.38;99040.64;2316631;77;20960;-71
2021/06/27 10:04:23;;;;;;;17.48;6.42;;;;;;;28.67;37.96;99049.25;2316560;77;20991;-69
2021/06/27 10:07:24;;;;;;;14.87;5.97;;;;;;;28.06;38.19;99046.90;2316871;77;20956;-70
2021/06/27 10:10:25;;;;;;;15.87;6.80;;;;;;;27.86;40.02;99047.28;2316581;77;21482;-72
2021/06/27 10:13:25;;;;;;;19.53;7.73;;;;;;;28.43;40.92;99029.89;2303616;77;21290;-71
2021/06/27 10:16:26;;;;;;;19.93;7.60;;;;;;;28.40;37.99;99046.98;2303475;77;20997;-64
2021/06/27 10:19:26;;;;;;;19.23;7.43;;;;;;;27.78;39.28;99033.47;2303533;77;21045;-65
2021/06/27 10:22:27;;;;;;;20.77;6.90;;;;;;;27.39;40.62;99043.83;2303247;77;20985;-65
2021/06/27 10:25:27;;;;;;;16.27;6.57;;;;;;;27.28;40.10;99043.84;2302743;77;21005;-66
2021/06/27 10:28:28;;;;;;;16.20;6.87;;;;;;;27.04;39.31;99045.11;2302738;77;20930;-64
2021/06/27 10:31:28;;;;;;;17.33;6.90;;;;;;;26.67;40.71;99048.91;2302704;77;20965;-64
2021/06/27 10:34:29;;;;;;;17.35;6.83;;;;;;;26.35;42.25;99055.92;2302252;77;21556;-65
2021/06/27 10:37:29;;;;;;;18.20;6.40;;;;;;;25.81;42.97;99071.87;2302446;77;20958;-64
2021/06/27 10:40:30;;;;;;;19.17;7.37;;;;;;;25.92;45.79;99062.52;2302712;77;20950;-64
2021/06/27 10:43:30;;;;;;;17.53;6.07;;;;;;;26.33;44.75;99065.20;2302580;77;20965;-64
2021/06/27 10:46:31;;;;;;;18.33;6.30;;;;;;;26.60;42.54;99060.93;2302739;77;20989;-64
2021/06/27 10:49:33;;;;;;;17.33;6.90;;;;;;;26.71;41.15;99054.25;2302788;77;20949;-64
2021/06/27 10:52:36;;;;;;;18.60;6.90;;;;;;;27.05;42.03;99052.17;2302434;77;21487;-65
2021/06/27 10:55:37;;;;;;;15.78;6.20;;;;;;;26.76;41.02;99040.52;2302581;77;21011;-65
2021/06/27 10:58:37;;;;;;;16.77;6.97;;;;;;;26.32;41.90;99034.80;2302865;77;20989;-65
2021/06/27 11:01:37;;;;;;;17.77;7.00;;;;;;;26.11;41.41;99035.59;2302613;77;20940;-66
2021/06/27 11:04:38;;;;;;;17.37;7.03;;;;;;;26.11;41.87;99031.56;2302598;77;21424;-72
2021/06/27 11:07:38;;;;;;;16.80;7.03;;;;;;;26.28;42.27;99033.52;2302829;77;21502;-67
2021/06/27 11:10:39;;;;;;;17.40;7.20;;;;;;;26.16;43.20;99036.36;2301972;77;20977;-70
2021/06/27 11:13:39;;;;;;;18.50;7.37;;;;;;;26.10;43.61;99034.77;2285120;78;20971;-70
2021/06/27 11:16:40;;;;;;;17.40;7.10;;;;;;;26.04;43.86;99029.31;2284712;78;20963;-70
2021/06/27 11:19:41;;;;;;;19.20;8.00;;;;;;;26.16;42.92;99025.61;2284666;78;20975;-72
2021/06/27 11:22:41;;;;;;;18.52;7.05;;;;;;;26.35;42.95;99033.56;2284696;78;20964;-67
2021/06/27 11:25:42;;;;;;;16.73;6.63;;;;;;;26.01;42.77;99027.00;2284629;78;20959;-68
2021/06/27 11:28:42;;;;;;;18.00;7.07;;;;;;;25.96;42.68;99026.69;2284557;78;20958;-72
2021/06/27 11:31:43;;;;;;;17.80;7.30;;;;;;;26.19;43.13;99030.61;2284777;78;20976;-70
2021/06/27 11:34:44;;;;;;;16.75;6.40;;;;;;;26.05;43.59;99039.05;2284368;78;21022;-70
2021/06/27 11:37:44;;;;;;;16.33;6.60;;;;;;;26.40;42.98;99028.46;2284695;78;21458;-72
2021/06/27 11:40:45;;;;;;;18.43;7.43;;;;;;;27.02;42.41;99024.27;2284494;78;20959;-64
2021/06/27 11:43:46;;;;;;;19.27;6.77;;;;;;;27.35;41.42;99025.05;2284555;78;20956;-65
2021/06/27 11:46:46;;;;;;;17.00;6.90;;;;;;;27.27;40.41;99016.59;2284663;78;21045;-69
2021/06/27 11:49:47;;;;;;;17.27;6.75;;;;;;;27.35;40.51;99011.59;2284387;78;20999;-71
2021/06/27 11:52:47;;;;;;;14.60;5.87;;;;;;;28.06;41.08;99001.57;2284742;78;21025;-72
2021/06/27 11:56:03;;;;;;;16.47;6.03;;;;;;;28.92;38.58;99004.95;2284681;78;20997;-70
2021/06/27 11:58:50;;;;;;;15.13;5.80;;;;;;;29.10;38.83;98996.19;2256686;78;21449;-70
2021/06/27 12:01:51;;;;;;;16.87;5.80;;;;;;;29.31;38.70;98991.09;2285035;78;20959;-71
2021/06/27 12:04:51;;;;;;;17.03;6.57;;;;;;;28.90;35.50;98994.04;2284559;78;21003;-70
2021/06/27 12:07:52;;;;;;;13.93;5.80;;;;;;;28.15;36.81;98990.93;2284517;78;20967;-71
2021/06/27 12:10:52;;;;;;;15.93;5.73;;;;;;;27.89;39.08;98988.44;2284648;77;21055;-72
2021/06/27 12:13:56;;;;;;;15.53;6.03;;;;;;;27.75;35.73;98991.59;2302489;77;20962;-71
2021/06/27 12:16:55;;;;;;;13.03;5.72;;;;;;;27.72;38.19;98985.26;2276223;77;21539;-71
2021/06/27 12:19:56;;;;;;;19.47;6.40;;;;;;;27.66;37.97;98986.89;2302589;77;20989;-67
2021/06/27 12:22:56;;;;;;;15.70;5.47;;;;;;;27.66;39.13;98978.81;2302619;77;21049;-65
2021/06/27 12:25:57;;;;;;;13.63;5.37;;;;;;;27.77;36.70;98977.91;2302347;77;21091;-65
2021/06/27 12:28:58;;;;;;;16.27;5.30;;;;;;;28.62;35.76;98981.07;2302490;77;20962;-65
2021/06/27 12:31:58;;;;;;;15.45;5.15;;;;;;;29.21;34.29;98980.70;2302273;77;21483;-67
2021/06/27 12:34:59;;;;;;;12.57;5.10;;;;;;;29.42;32.98;98987.43;2302499;77;20962;-68
2021/06/27 12:37:59;;;;;;;14.70;5.53;;;;;;;29.02;33.20;98988.30;2302743;77;21022;-69
2021/06/27 12:41:00;;;;;;;15.73;5.40;;;;;;;28.52;35.80;98990.88;2302702;77;20962;-66
2021/06/27 12:44:01;;;;;;;16.30;5.47;;;;;;;28.98;37.40;98993.30;2302381;77;20966;-68
2021/06/27 12:47:01;;;;;;;15.10;5.57;;;;;;;29.13;34.42;98994.41;2302585;77;21472;-68
2021/06/27 12:50:02;;;;;;;12.60;5.37;;;;;;;28.46;35.39;98992.22;2302447;77;21499;-67
2021/06/27 12:53:02;;;;;;;18.90;5.93;;;;;;;28.31;35.53;98997.80;2302467;77;21612;-68
2021/06/27 12:59:06;;;;;;;19.12;6.45;;;;;;;27.58;36.44;98997.83;2276586;77;20974;-69
2021/06/27 13:02:09;;;;;;;17.65;7.75;;;;;;;27.38;37.92;98996.91;2302162;77;21057;-65
2021/06/27 13:05:10;;;;;;;19.65;7.15;;;;;;;26.92;39.23;99004.45;2302358;77;20968;-66
2021/06/27 13:08:10;;;;;;;18.23;8.60;;;;;;;26.58;40.31;99010.02;2302588;77;20957;-66
2021/06/27 13:11:11;;;;;;;19.47;7.40;;;;;;;26.42;41.05;99011.61;2301553;77;21495;-65
2021/06/27 13:14:11;;;;;;;21.00;8.03;;;;;;;26.41;40.99;99008.63;2284653;78;20987;-69
2021/06/27 13:17:12;;;;;;;17.73;7.60;;;;;;;27.07;39.68;99004.88;2284116;78;21520;-65
2021/06/27 13:20:13;;;;;;;19.23;7.50;;;;;;;27.58;39.84;99000.52;2284524;78;21466;-67
2021/06/27 13:23:13;;;;;;;20.00;7.87;;;;;;;28.41;40.02;98989.32;2284354;78;21525;-67
2021/06/27 13:26:14;;;;;;;18.23;7.63;;;;;;;28.98;38.55;98990.60;2284573;78;20932;-70
2021/06/27 13:29:14;;;;;;;22.40;7.63;;;;;;;28.71;36.35;98971.42;2284396;78;20971;-67
2021/06/27 13:32:15;;;;;;;17.43;7.40;;;;;;;28.71;36.35;98971.42;2284614;78;20980;-65
2021/06/27 13:35:15;;;;;;;16.97;7.40;;;;;;;28.34;39.17;98976.64;2284609;78;20982;-67
2021/06/27 13:38:16;;;;;;;18.83;7.80;;;;;;;28.29;37.94;98976.97;2284613;78;21004;-66
2021/06/27 13:41:17;;;;;;;17.77;7.72;;;;;;;27.89;38.06;98976.31;2284156;78;20994;-67
2021/06/27 13:44:18;;;;;;;18.60;6.87;;;;;;;28.28;39.49;98972.08;2284319;78;20951;-66
2021/06/27 13:47:18;;;;;;;17.23;6.80;;;;;;;28.63;37.81;98978.69;2284473;78;20928;-67
2021/06/27 13:50:19;;;;;;;17.07;7.20;;;;;;;28.46;37.36;98976.03;2284508;78;21018;-66
2021/06/27 13:53:20;;;;;;;19.20;7.20;;;;;;;28.21;37.29;98977.97;2284706;78;20987;-65
2021/06/27 13:56:20;;;;;;;17.73;7.00;;;;;;;28.15;38.34;98972.87;2284585;78;20967;-64
2021/06/27 13:59:20;;;;;;;21.10;7.10;;;;;;;28.30;38.39;98971.86;2284718;78;21028;-66
2021/06/27 14:02:21;;;;;;;17.57;6.53;;;;;;;28.35;37.23;98978.31;2284749;78;21458;-71
2021/06/27 14:05:22;;;;;;;19.13;7.17;;;;;;;28.22;37.64;98969.39;2284769;78;20987;-67
2021/06/27 14:08:23;;;;;;;19.48;7.35;;;;;;;28.02;38.06;98967.99;2284635;78;20960;-70
2021/06/27 14:11:23;;;;;;;16.67;6.80;;;;;;;27.92;37.75;98974.55;2285468;77;20991;-70
2021/06/27 14:14:25;;;;;;;16.60;6.75;;;;;;;27.86;38.04;98970.48;2302097;77;20990;-71
2021/06/27 14:17:26;;;;;;;19.00;7.35;;;;;;;28.32;38.31;98968.46;2302138;77;21060;-69
2021/06/27 14:20:29;;;;;;;17.77;6.57;;;;;;;28.62;37.02;98974.83;2302645;77;21520;-67
2021/06/27 14:23:29;;;;;;;17.25;6.42;;;;;;;28.59;36.54;98972.02;2276712;77;21026;-66